Main page
METAR-TAF:

METAR-TAF

Airports :

Colmenar Viejo, Spain

latitude: 40-39N, longitude: 003-44W, elevation: -999 m

Current weather observation

The report was made 59 minutes ago, at 12:00 UTC
Wind 2 kt from the Southeast
Temperature 29°C
Humidity 25%
Pressure 1023 hPa
Visibility 10 km or more
Few clouds at a height of 6000 ft

METAR: LECV 201200Z 13002KT 9999 FEW060 29/07 Q1023

Time: 14:59 (12:59 UTC)

Forecast

The report was made 1 hour and 59 minutes ago, at 11:00 UTC
Forecast valid from 20 at 12 UTC to 20 at 21 UTC
Wind 5 kt from the South
Visibility 10 km or more
no clouds below 1500 m and no cumulonimbus

TAF: LECV 201100Z 2012/2021 18005KT CAVOK

Weather observations and forecasts of more than 4000 airports (METAR and TAF reports).

The available stations are represented by yellow and red dots on the map.

Hover mouse over dot to see the name of the station.

Then click to see weather observations and forecasts.

To change the map : click on the green buttons with a black cross to zoom in, on the green button with a dash to zoom out, or on the green arrows for adjacent maps.


METAR-TAF: